Time;durP1;ratioP1;P1;durP2;ratioP2;P2;SDS_P1;SDS_P2;PMS_P1;PMS_P2;Temp;Humidity;BMP_temperature;BMP_pressure;BME280_temperature;BME280_humidity;BME280_pressure;Samples;Min_cycle;Max_cycle;Signal;HPM_P1;HPM_P2
2022/12/19 00:02:40;;;;;;;10.55;7.03;;;;;;;-1.58;82.10;102485.09;1631399;86;21433;-53
2022/12/19 00:05:49;;;;;;;11.20;6.42;;;;;;;-1.59;82.19;102481.13;1631361;88;21228;-54
2022/12/19 00:08:59;;;;;;;11.10;7.47;;;;;;;-1.61;82.21;102483.86;1622593;86;21239;-52
2022/12/19 00:12:09;;;;;;;9.85;6.72;;;;;;;-1.65;82.17;102482.17;1619443;87;21256;-54
2022/12/19 00:15:17;;;;;;;10.98;7.50;;;;;;;-1.68;82.22;102498.38;1619426;88;21216;-54
2022/12/19 00:18:23;;;;;;;9.75;6.95;;;;;;;-1.72;82.20;102503.45;1620633;87;21236;-54
2022/12/19 00:21:31;;;;;;;11.78;7.80;;;;;;;-1.73;82.24;102500.32;1619528;88;21225;-54
2022/12/19 00:24:39;;;;;;;10.00;6.92;;;;;;;-1.77;82.17;102510.75;1619374;88;21242;-53
2022/12/19 00:27:46;;;;;;;12.10;8.98;;;;;;;-1.82;82.17;102510.00;1619393;87;21776;-54
2022/12/19 00:30:56;;;;;;;12.35;8.20;;;;;;;-1.84;82.22;102515.87;1619477;88;21236;-55
2022/12/19 00:34:01;;;;;;;11.25;7.62;;;;;;;-1.88;82.19;102515.56;1619400;88;21221;-53
2022/12/19 00:37:07;;;;;;;12.18;8.05;;;;;;;-1.93;82.19;102521.97;1619514;87;21370;-54
2022/12/19 00:40:14;;;;;;;10.05;6.60;;;;;;;-2.00;82.10;102519.92;1619360;88;21317;-53
2022/12/19 00:43:24;;;;;;;11.05;6.95;;;;;;;-2.12;82.06;102522.97;1619380;87;21382;-54
2022/12/19 00:46:30;;;;;;;10.45;6.95;;;;;;;-2.19;82.11;102529.42;1619435;88;21232;-54
2022/12/19 00:49:37;;;;;;;9.75;6.60;;;;;;;-2.24;82.10;102547.47;1619414;88;21272;-54
2022/12/19 00:52:46;;;;;;;10.38;6.90;;;;;;;-2.28;82.11;102549.80;1619500;87;21252;-53
2022/12/19 00:55:52;;;;;;;9.70;6.58;;;;;;;-2.32;82.13;102548.59;1619400;88;21224;-53
2022/12/19 00:58:59;;;;;;;10.23;6.83;;;;;;;-2.36;82.09;102550.47;1619413;88;21244;-53
2022/12/19 01:02:06;;;;;;;11.35;7.87;;;;;;;-2.41;82.06;102554.21;1619446;87;21244;-53
2022/12/19 01:05:13;;;;;;;12.55;8.05;;;;;;;-2.46;82.03;102555.69;1619365;88;21264;-53
2022/12/19 01:08:21;;;;;;;11.35;7.92;;;;;;;-2.49;82.07;102561.09;1619377;87;21305;-53
2022/12/19 01:14:53;;;;;;;13.05;8.40;;;;;;;-2.54;82.08;102559.47;1655389;86;21344;-53
2022/12/19 01:18:00;;;;;;;13.40;8.08;;;;;;;-2.58;82.08;102565.81;1655641;86;21291;-54
2022/12/19 01:21:12;;;;;;;12.70;8.65;;;;;;;-2.61;82.05;102556.52;1661041;86;21219;-54
2022/12/19 01:24:18;;;;;;;13.62;7.92;;;;;;;-2.68;81.98;102567.84;1655925;86;21410;-54
2022/12/19 01:27:24;;;;;;;12.05;7.37;;;;;;;-2.71;82.01;102561.23;1656499;86;21252;-52
2022/12/19 01:30:29;;;;;;;10.63;6.75;;;;;;;-2.73;82.02;102566.22;1647275;87;21304;-54
2022/12/19 01:33:36;;;;;;;11.15;6.97;;;;;;;-2.75;82.06;102576.09;1639607;86;21752;-53
2022/12/19 01:36:43;;;;;;;11.28;7.08;;;;;;;-2.75;82.12;102570.28;1630887;86;21244;-53
2022/12/19 01:39:50;;;;;;;13.00;6.72;;;;;;;-2.76;82.10;102573.89;1630773;87;21227;-54
2022/12/19 01:42:57;;;;;;;12.23;7.40;;;;;;;-2.77;82.12;102577.92;1656585;86;21284;-53
2022/12/19 01:46:07;;;;;;;12.37;8.20;;;;;;;-2.82;81.99;102569.14;1655974;86;21251;-54
2022/12/19 01:49:41;;;;;;;10.70;7.78;;;;;;;-2.88;81.96;102570.16;1647510;87;21295;-53
2022/12/19 01:52:49;;;;;;;11.18;6.80;;;;;;;-2.92;81.93;102575.19;1655058;86;21350;-54
2022/12/19 01:55:55;;;;;;;11.30;7.65;;;;;;;-2.95;81.93;102580.62;1655053;87;21596;-54
2022/12/19 01:59:03;;;;;;;;;;;;;;;-2.95;81.95;102589.11;1657342;86;21297;-53
2022/12/19 02:01:56;;;;;;;10.80;6.95;;;;;;;-2.96;81.92;102592.23;1628831;87;20263;-53
2022/12/19 02:04:44;;;;;;;9.98;6.67;;;;;;;-3.01;81.90;102596.81;1662570;86;21208;-54
2022/12/19 02:07:49;;;;;;;13.32;8.23;;;;;;;-3.03;81.85;102602.70;1656792;86;21259;-54
2022/12/19 02:10:54;;;;;;;12.23;7.28;;;;;;;-3.02;81.94;102599.53;1659317;83;21231;-53
2022/12/19 02:14:00;;;;;;;12.80;7.42;;;;;;;-2.98;81.97;102605.27;1665429;86;21291;-53
2022/12/19 02:17:21;;;;;;;12.45;8.03;;;;;;;-2.99;81.94;102608.39;1666207;85;21239;-53
2022/12/19 02:21:04;;;;;;;15.45;8.05;;;;;;;-3.01;81.88;102619.59;1640250;86;21344;-54
2022/12/19 02:25:05;;;;;;;14.25;7.75;;;;;;;-3.03;81.83;102612.08;1673933;86;21235;-54
2022/12/19 02:28:40;;;;;;;13.55;8.30;;;;;;;-3.04;81.77;102616.13;1673979;84;21255;-52
2022/12/19 02:32:00;;;;;;;12.30;8.23;;;;;;;-3.08;81.76;102619.33;1668728;84;21287;-52
2022/12/19 02:35:31;;;;;;;13.65;8.23;;;;;;;-3.11;81.80;102620.26;1674082;85;21359;-53
2022/12/19 02:38:55;;;;;;;12.05;7.97;;;;;;;-3.12;81.79;102617.62;1673964;84;21310;-53
2022/12/19 02:42:06;;;;;;;13.58;8.40;;;;;;;-3.14;81.80;102622.16;1673923;84;21278;-53
2022/12/19 02:45:14;;;;;;;16.82;9.28;;;;;;;-3.17;81.79;102615.50;1673988;86;21262;-53
2022/12/19 02:48:21;;;;;;;13.20;7.40;;;;;;;-3.20;81.79;102618.25;1674105;84;21246;-53
2022/12/19 02:51:27;;;;;;;13.75;8.18;;;;;;;-3.23;81.75;102610.28;1668815;85;21236;-53
2022/12/19 02:54:34;;;;;;;13.05;7.85;;;;;;;-3.26;81.77;102613.92;1673893;85;21230;-54
2022/12/19 02:57:57;;;;;;;14.10;7.95;;;;;;;-3.30;81.73;102613.55;1673867;84;21286;-53
2022/12/19 03:01:08;;;;;;;12.45;8.40;;;;;;;-3.35;81.75;102606.55;1674071;85;21227;-53
2022/12/19 03:04:40;;;;;;;16.15;9.35;;;;;;;-3.38;81.78;102627.56;1668675;85;21230;-53
2022/12/19 03:08:15;;;;;;;11.93;7.73;;;;;;;-3.41;81.74;102636.15;1674165;84;21258;-53
2022/12/19 03:11:21;;;;;;;14.15;8.38;;;;;;;-3.44;81.79;102633.54;1667973;85;21235;-54
2022/12/19 03:14:28;;;;;;;15.18;9.30;;;;;;;-3.45;81.80;102644.70;1652205;86;21228;-54
2022/12/19 03:17:35;;;;;;;13.48;8.75;;;;;;;-3.46;81.80;102656.33;1647063;86;21377;-53
2022/12/19 03:20:53;;;;;;;15.78;9.63;;;;;;;-3.44;81.82;102656.30;1647072;87;21276;-52
2022/12/19 03:24:01;;;;;;;14.50;8.55;;;;;;;-3.43;81.78;102661.61;1647094;87;21324;-54
2022/12/19 03:27:27;;;;;;;13.00;8.40;;;;;;;-3.41;81.75;102666.94;1648846;86;21247;-53
2022/12/19 03:30:34;;;;;;;13.72;8.35;;;;;;;-3.45;81.68;102670.13;1647260;87;21385;-53
2022/12/19 03:33:41;;;;;;;14.10;8.35;;;;;;;-3.50;81.58;102675.13;1647100;86;21236;-52
2022/12/19 03:36:50;;;;;;;13.98;7.78;;;;;;;-3.58;81.52;102677.97;1621774;86;21228;-52
2022/12/19 03:40:01;;;;;;;15.98;8.08;;;;;;;-3.62;81.44;102685.66;1631270;88;21263;-53
2022/12/19 03:43:10;;;;;;;16.15;9.00;;;;;;;-3.69;81.45;102692.47;1654500;87;21259;-53
2022/12/19 03:46:24;;;;;;;13.93;8.28;;;;;;;-3.73;81.41;102690.33;1647251;86;21225;-53
2022/12/19 03:49:31;;;;;;;13.62;7.90;;;;;;;-3.73;81.44;102702.82;1646912;87;21224;-53
2022/12/19 03:52:59;;;;;;;14.00;8.35;;;;;;;-3.69;81.51;102721.91;1646802;86;21402;-53
2022/12/19 03:56:22;;;;;;;17.60;9.03;;;;;;;-3.64;81.55;102720.03;1646909;87;21313;-54
2022/12/19 03:59:41;;;;;;;12.85;8.45;;;;;;;-3.59;81.55;102735.11;1648615;86;21229;-53
2022/12/19 04:02:52;;;;;;;13.95;8.73;;;;;;;-3.50;81.68;102747.41;1654411;87;21243;-52
2022/12/19 04:05:57;;;;;;;14.30;8.25;;;;;;;-3.42;81.61;102759.75;1646973;86;21184;-53
2022/12/19 04:09:03;;;;;;;14.73;8.03;;;;;;;-3.40;81.60;102752.58;1646864;87;21221;-49
2022/12/19 04:12:15;;;;;;;11.18;7.45;;;;;;;-3.35;81.55;102765.87;1645971;86;21367;-50
2022/12/19 04:15:21;;;;;;;12.95;7.95;;;;;;;-3.43;81.35;102771.38;1657017;84;21199;-50
2022/12/19 04:18:27;;;;;;;12.80;7.58;;;;;;;-3.49;81.28;102761.24;1690664;83;21336;-50
2022/12/19 04:21:40;;;;;;;12.37;7.78;;;;;;;-3.53;81.21;102764.42;1673421;83;21217;-51
2022/12/19 04:24:48;;;;;;;13.05;9.00;;;;;;;-3.55;81.19;102763.56;1646733;87;21296;-52
2022/12/19 04:27:58;;;;;;;13.13;8.10;;;;;;;-3.58;81.14;102756.03;1659727;84;21223;-50
2022/12/19 04:31:05;;;;;;;13.65;7.83;;;;;;;-3.56;81.16;102769.84;1668315;85;21231;-52
2022/12/19 04:34:10;;;;;;;14.45;8.78;;;;;;;-3.57;81.15;102776.08;1642843;86;21326;-50
2022/12/19 04:37:17;;;;;;;14.25;8.63;;;;;;;-3.58;81.11;102769.42;1641904;86;21306;-52
2022/12/19 04:40:23;;;;;;;16.12;10.03;;;;;;;-3.58;81.17;102773.44;1642622;86;21339;-50
2022/12/19 04:43:32;;;;;;;16.93;10.48;;;;;;;-3.60;81.17;102776.63;1661059;85;21364;-52
2022/12/19 04:46:37;;;;;;;16.55;9.65;;;;;;;-3.62;81.17;102793.16;1670459;84;21259;-49
2022/12/19 04:49:44;;;;;;;25.05;16.67;;;;;;;-3.67;81.07;102793.69;1685682;83;21239;-52
2022/12/19 04:52:49;;;;;;;26.12;14.93;;;;;;;-3.75;80.98;102789.81;1727398;81;21238;-52
2022/12/19 04:55:54;;;;;;;45.45;27.25;;;;;;;-3.79;80.96;102793.91;1729548;83;21238;-52
2022/12/19 04:59:05;;;;;;;30.92;18.60;;;;;;;-3.78;81.02;102793.89;1728917;82;21223;-51
2022/12/19 05:02:13;;;;;;;21.68;12.82;;;;;;;-3.77;80.97;102790.73;1729355;81;21231;-51
2022/12/19 05:05:20;;;;;;;19.75;13.22;;;;;;;-3.76;80.97;102796.05;1730105;82;21276;-53
2022/12/19 05:08:27;;;;;;;19.45;12.73;;;;;;;-3.78;80.83;102810.38;1729848;81;21771;-51
2022/12/19 05:11:33;;;;;;;21.17;14.00;;;;;;;-3.87;80.65;102805.20;1701897;82;21279;-52
2022/12/19 05:14:39;;;;;;;19.85;13.13;;;;;;;-3.96;80.70;102816.03;1685465;84;21267;-51
2022/12/19 05:17:45;;;;;;;24.35;12.68;;;;;;;-3.95;80.84;102829.86;1681438;84;21803;-51
2022/12/19 05:20:54;;;;;;;27.65;20.17;;;;;;;-3.94;80.88;102828.93;1658375;86;21722;-52
2022/12/19 05:24:00;;;;;;;21.23;13.30;;;;;;;-4.01;80.80;102837.98;1643310;86;21221;-51
2022/12/19 05:27:05;;;;;;;15.23;10.18;;;;;;;-4.07;80.79;102843.40;1675731;84;21228;-52
2022/12/19 05:30:12;;;;;;;20.30;11.08;;;;;;;-4.11;80.80;102857.73;1653189;86;21589;-55
2022/12/19 05:33:18;;;;;;;20.95;10.60;;;;;;;-4.16;80.73;102865.84;1676123;84;21275;-53
2022/12/19 05:36:26;;;;;;;18.45;10.75;;;;;;;-4.25;80.65;102879.31;1647387;87;21265;-53
2022/12/19 05:39:34;;;;;;;17.17;10.35;;;;;;;-4.28;80.67;102877.16;1675741;85;21358;-51
2022/12/19 05:42:47;;;;;;;17.95;10.28;;;;;;;-4.31;80.59;102890.58;1658619;85;21264;-52
2022/12/19 05:45:54;;;;;;;17.82;10.68;;;;;;;-4.38;80.60;102890.22;1675889;85;21196;-52
2022/12/19 05:48:59;;;;;;;16.55;8.35;;;;;;;-4.42;80.54;102898.72;1642152;86;21246;-51
2022/12/19 05:52:05;;;;;;;20.32;10.08;;;;;;;-4.55;80.38;102888.22;1652376;85;21265;-52
2022/12/19 05:55:10;;;;;;;17.48;9.58;;;;;;;-4.68;80.29;102893.70;1670769;85;21214;-52
2022/12/19 05:58:18;;;;;;;19.32;10.63;;;;;;;-4.77;80.21;102886.25;1681615;83;21410;-52
2022/12/19 06:01:29;;;;;;;21.93;10.45;;;;;;;-4.80;80.36;102899.64;1674282;83;21212;-53
2022/12/19 06:04:36;;;;;;;16.60;9.67;;;;;;;-4.76;80.50;102914.27;1654159;86;22502;-51
2022/12/19 06:07:43;;;;;;;19.55;10.63;;;;;;;-4.71;80.57;102927.14;1632192;86;21245;-51
2022/12/19 06:10:48;;;;;;;20.55;9.43;;;;;;;-4.72;80.50;102932.06;1644219;86;21295;-52
2022/12/19 06:13:55;;;;;;;19.30;9.90;;;;;;;-4.71;80.48;102945.84;1674237;83;21247;-54
2022/12/19 06:17:00;;;;;;;20.20;10.13;;;;;;;-4.75;80.41;102946.79;1691122;84;21808;-54
2022/12/19 06:20:25;;;;;;;17.05;9.95;;;;;;;-4.81;80.22;102944.63;1690646;84;21195;-53
2022/12/19 06:23:31;;;;;;;17.50;9.55;;;;;;;-4.89;80.23;102958.08;1656625;84;21301;-52
2022/12/19 06:26:49;;;;;;;19.57;10.50;;;;;;;-4.85;80.28;102970.48;1683754;84;21273;-55
2022/12/19 06:29:55;;;;;;;15.65;9.85;;;;;;;-4.87;80.25;102978.95;1678602;84;21319;-56
2022/12/19 06:33:00;;;;;;;18.42;10.65;;;;;;;-4.88;80.20;102992.33;1657425;85;21312;-57
2022/12/19 06:36:11;;;;;;;17.80;10.08;;;;;;;-4.93;80.10;102995.52;1651529;86;21640;-53
2022/12/19 06:39:21;;;;;;;20.30;10.28;;;;;;;-4.97;80.03;102996.43;1683769;83;21744;-53
2022/12/19 06:42:26;;;;;;;17.67;9.98;;;;;;;-5.03;79.97;102996.05;1698041;83;21791;-54
2022/12/19 06:45:34;;;;;;;21.23;10.98;;;;;;;-5.05;79.98;102996.52;1686817;85;21571;-53
2022/12/19 06:48:42;;;;;;;16.05;9.23;;;;;;;-5.07;79.94;102993.40;1672796;85;21244;-55
2022/12/19 06:51:48;;;;;;;16.80;9.98;;;;;;;-5.10;79.91;103003.67;1702666;83;21272;-53
2022/12/19 06:54:55;;;;;;;16.35;9.70;;;;;;;-5.16;79.77;102999.72;1660661;86;21828;-53
2022/12/19 06:58:02;;;;;;;18.42;10.25;;;;;;;-5.22;79.76;103000.22;1647987;84;21246;-55
2022/12/19 07:01:09;;;;;;;17.73;9.45;;;;;;;-5.20;79.87;103005.97;1686163;85;21673;-55
2022/12/19 07:04:16;;;;;;;15.08;9.38;;;;;;;-5.17;79.90;102999.27;1658690;86;21273;-56
2022/12/19 07:07:23;;;;;;;19.15;9.85;;;;;;;-5.16;79.89;103002.39;1662761;84;21921;-56
2022/12/19 07:10:35;;;;;;;19.67;10.85;;;;;;;-5.14;79.93;103006.38;1681861;83;21210;-57
2022/12/19 07:13:41;;;;;;;19.70;10.23;;;;;;;-5.08;79.99;103023.24;1692408;83;21232;-57
2022/12/19 07:16:48;;;;;;;16.23;9.83;;;;;;;-5.06;79.92;103018.75;1690378;84;21316;-55
2022/12/19 07:20:09;;;;;;;29.60;16.10;;;;;;;-5.01;79.94;103008.92;1676929;83;21983;-55
2022/12/19 07:23:19;;;;;;;27.90;13.83;;;;;;;-5.03;79.81;103004.06;1686106;84;21277;-56
2022/12/19 07:26:25;;;;;;;32.00;17.55;;;;;;;-5.01;79.83;103015.59;1692027;84;21198;-55
2022/12/19 07:29:31;;;;;;;69.03;34.80;;;;;;;-5.04;79.73;103004.95;1691418;84;21275;-57
2022/12/19 07:32:38;;;;;;;33.88;18.25;;;;;;;-5.00;79.79;103028.07;1692489;83;21250;-55
2022/12/19 07:35:46;;;;;;;36.33;19.67;;;;;;;-4.97;79.78;103025.38;1692554;83;21764;-55
2022/12/19 07:38:51;;;;;;;20.48;9.70;;;;;;;-4.95;79.78;103041.38;1665157;86;21246;-55
2022/12/19 07:41:59;;;;;;;17.23;9.25;;;;;;;-4.91;79.78;103050.68;1685656;83;21600;-56
2022/12/19 07:45:08;;;;;;;15.48;9.50;;;;;;;-4.83;79.76;103041.25;1694282;84;21743;-56
2022/12/19 07:48:13;;;;;;;23.70;13.05;;;;;;;-4.68;79.82;103059.36;1634143;86;21811;-55
2022/12/19 07:51:19;;;;;;;20.65;13.60;;;;;;;-4.58;79.76;103057.48;1685137;85;21259;-54
2022/12/19 07:54:27;;;;;;;15.58;9.48;;;;;;;-4.49;79.78;103049.39;1691398;83;21287;-57
2022/12/19 07:57:33;;;;;;;19.02;9.53;;;;;;;-4.36;79.76;103058.16;1693005;82;21736;-55
2022/12/19 08:00:40;;;;;;;18.17;9.05;;;;;;;-4.25;79.80;103057.59;1705983;83;21249;-54
2022/12/19 08:03:46;;;;;;;15.28;8.78;;;;;;;-4.23;79.73;103058.48;1655477;85;21594;-55
2022/12/19 08:06:54;;;;;;;20.50;11.68;;;;;;;-4.15;79.73;103052.55;1657370;86;21220;-56
2022/12/19 08:10:06;;;;;;;18.83;9.97;;;;;;;-4.11;79.72;103062.33;1661796;86;21216;-54
2022/12/19 08:13:14;;;;;;;15.23;8.95;;;;;;;-4.04;79.80;103078.28;1691735;83;21288;-54
2022/12/19 08:16:20;;;;;;;16.85;9.40;;;;;;;-3.96;79.89;103066.14;1692275;84;21229;-55
2022/12/19 08:19:27;;;;;;;18.85;9.30;;;;;;;-3.90;79.92;103057.59;1685449;85;21614;-55
2022/12/19 08:22:37;;;;;;;15.65;10.05;;;;;;;-3.81;79.91;103076.23;1671272;85;21263;-55
2022/12/19 08:25:44;;;;;;;12.47;7.58;;;;;;;-3.73;79.91;103066.76;1642517;86;21231;-55
2022/12/19 08:29:01;;;;;;;15.03;9.28;;;;;;;-3.64;79.95;103063.50;1658802;86;21236;-55
2022/12/19 08:32:08;;;;;;;14.85;8.23;;;;;;;-3.51;79.96;103068.23;1659338;84;21363;-55
2022/12/19 08:35:17;;;;;;;15.30;8.10;;;;;;;-3.51;79.83;103069.57;1651073;86;21295;-59
2022/12/19 08:38:24;;;;;;;12.60;7.62;;;;;;;-3.43;79.81;103079.72;1682227;83;21283;-57
2022/12/19 08:41:31;;;;;;;13.98;7.75;;;;;;;-3.45;79.70;103081.53;1662101;84;21871;-55
2022/12/19 08:44:36;;;;;;;13.93;7.55;;;;;;;-3.49;79.59;103083.35;1662486;84;21232;-56
2022/12/19 08:47:44;;;;;;;13.80;8.33;;;;;;;-3.53;79.61;103080.30;1674853;83;21664;-54
2022/12/19 08:51:03;;;;;;;16.12;9.33;;;;;;;-3.47;79.70;103099.39;1659355;84;21220;-55
2022/12/19 08:54:11;;;;;;;14.75;7.70;;;;;;;-3.41;79.82;103116.74;1639228;86;21856;-55
2022/12/19 08:57:17;;;;;;;14.43;8.50;;;;;;;-3.38;79.82;103105.98;1672913;83;21213;-55
2022/12/19 09:00:27;;;;;;;20.00;8.58;;;;;;;-3.34;79.89;103111.27;1692367;83;21506;-54
2022/12/19 09:03:35;;;;;;;18.52;9.05;;;;;;;-3.25;79.97;103096.88;1690565;83;21254;-55
2022/12/19 09:06:43;;;;;;;12.95;8.10;;;;;;;-3.24;79.81;103112.02;1690820;84;21302;-54
2022/12/19 09:09:49;;;;;;;15.43;7.65;;;;;;;-3.20;79.88;103101.24;1682304;84;21232;-55
2022/12/19 09:12:55;;;;;;;41.35;12.10;;;;;;;-3.16;79.85;103093.61;1679217;85;21224;-55
2022/12/19 09:16:14;;;;;;;19.23;7.85;;;;;;;-3.13;79.83;103120.79;1691589;84;21507;-56
2022/12/19 09:19:19;;;;;;;13.65;7.37;;;;;;;-3.16;79.75;103109.69;1687173;82;21636;-56
2022/12/19 09:22:25;;;;;;;12.28;6.97;;;;;;;-3.26;79.60;103101.78;1685501;83;21861;-56
2022/12/19 09:25:30;;;;;;;15.45;8.20;;;;;;;-3.25;79.71;103096.88;1699588;83;21204;-55
2022/12/19 09:28:36;;;;;;;16.62;8.48;;;;;;;-3.22;79.78;103103.05;1714378;82;21211;-55
2022/12/19 09:31:41;;;;;;;14.50;7.28;;;;;;;-3.12;79.90;103095.31;1705660;82;21261;-55
2022/12/19 09:34:50;;;;;;;13.00;7.28;;;;;;;-3.00;79.95;103105.41;1714213;83;21239;-55
2022/12/19 09:37:54;;;;;;;14.20;7.55;;;;;;;-2.97;79.88;103110.72;1714343;82;21227;-54
2022/12/19 09:41:27;;;;;;;13.50;8.15;;;;;;;-2.98;79.78;103087.53;1698610;83;21207;-56
2022/12/19 09:45:04;;;;;;;14.23;7.58;;;;;;;-2.94;79.85;103091.91;1687170;84;21267;-56
2022/12/19 09:48:17;;;;;;;16.00;7.87;;;;;;;-2.86;79.85;103105.63;1666462;83;21228;-55
2022/12/19 09:51:39;;;;;;;21.35;10.70;;;;;;;-2.85;79.77;103099.83;1672301;85;21728;-55
2022/12/19 09:54:50;;;;;;;27.93;11.83;;;;;;;-2.87;79.79;103101.16;1679583;85;21215;-54
2022/12/19 09:58:13;;;;;;;21.97;9.93;;;;;;;-2.85;79.78;103109.20;1695346;83;21235;-60
2022/12/19 10:01:33;;;;;;;20.65;9.58;;;;;;;-2.83;79.86;103108.26;1677441;83;21223;-55
2022/12/19 10:05:14;;;;;;;12.20;6.37;;;;;;;-2.82;79.83;103111.36;1615653;87;21377;-55
2022/12/19 10:08:34;;;;;;;10.72;6.03;;;;;;;-2.76;79.87;103128.71;1632928;86;21424;-56
2022/12/19 10:12:00;;;;;;;10.18;5.95;;;;;;;-2.74;79.81;103131.36;1666185;84;21371;-55
2022/12/19 10:15:51;;;;;;;11.60;6.83;;;;;;;-2.75;79.81;103122.42;1638775;86;21264;-54
2022/12/19 10:19:08;;;;;;;11.05;5.90;;;;;;;-2.71;79.85;103130.83;1646978;85;21264;-56
2022/12/19 10:22:35;;;;;;;11.00;6.00;;;;;;;-2.70;79.77;103137.09;1625995;87;21285;-55
2022/12/19 10:26:00;;;;;;;11.50;6.72;;;;;;;-2.70;79.81;103134.41;1652340;85;21227;-54
2022/12/19 10:29:28;;;;;;;11.45;7.08;;;;;;;-2.74;79.76;103127.34;1677615;85;21219;-56
2022/12/19 10:36:48;;;;;;;12.63;8.03;;;;;;;-2.77;79.86;103121.55;1649178;86;21201;-56
2022/12/19 10:40:15;;;;;;;13.58;8.20;;;;;;;-2.67;79.97;103107.10;1669424;85;21219;-58
2022/12/19 10:43:43;;;;;;;19.30;11.10;;;;;;;-2.60;80.09;103111.91;1679047;85;21307;-54
2022/12/19 10:46:52;;;;;;;15.68;9.43;;;;;;;-2.47;80.26;103107.63;1683218;85;21388;-55
2022/12/19 10:49:59;;;;;;;12.07;6.53;;;;;;;-2.28;80.37;103110.41;1683184;84;21212;-54
2022/12/19 10:53:15;;;;;;;12.47;5.90;;;;;;;-2.21;80.26;103118.80;1660338;85;21809;-54
2022/12/19 10:56:30;;;;;;;13.22;7.00;;;;;;;-2.23;80.06;103115.25;1674610;85;21200;-55
2022/12/19 10:59:36;;;;;;;24.40;14.68;;;;;;;-2.29;79.94;103111.34;1649727;85;21238;-54
2022/12/19 11:02:47;;;;;;;15.25;8.90;;;;;;;-2.28;80.00;103110.41;1664939;85;21259;-56
2022/12/19 11:05:57;;;;;;;14.05;9.75;;;;;;;-2.21;80.06;103101.35;1673107;84;21249;-59
2022/12/19 11:09:28;;;;;;;17.40;7.92;;;;;;;-2.11;80.05;103109.63;1659619;84;21241;-56
2022/12/19 11:12:34;;;;;;;11.00;8.00;;;;;;;-2.04;79.99;103125.17;1649937;85;21291;-56
2022/12/19 11:15:46;;;;;;;10.85;6.78;;;;;;;-2.00;80.00;103122.87;1621097;86;21207;-57
2022/12/19 11:18:54;;;;;;;14.53;7.08;;;;;;;-1.98;79.89;103139.36;1615973;86;21291;-57
2022/12/19 11:22:12;;;;;;;9.13;6.60;;;;;;;-1.99;79.83;103138.94;1671202;83;21339;-57
2022/12/19 11:25:27;;;;;;;9.70;6.78;;;;;;;-2.04;79.78;103129.19;1669174;85;21825;-58
2022/12/19 11:29:13;;;;;;;14.30;5.70;;;;;;;-2.03;79.83;103130.50;1674447;83;21275;-57
2022/12/19 11:32:45;;;;;;;9.53;6.73;;;;;;;-1.84;80.06;103123.86;1892360;73;22782;-60
2022/12/19 11:36:03;;;;;;;9.98;6.40;;;;;;;-1.80;80.13;103124.70;1829982;77;21192;-60
2022/12/19 11:39:12;;;;;;;11.70;6.05;;;;;;;-1.72;80.10;103122.30;1812957;78;21169;-61
2022/12/19 11:42:40;;;;;;;14.00;7.30;;;;;;;-1.69;80.03;103142.36;1817826;77;21193;-60
2022/12/19 11:46:25;;;;;;;10.20;6.95;;;;;;;-1.68;79.94;103147.25;1816466;76;21268;-60
2022/12/19 11:49:44;;;;;;;11.10;6.58;;;;;;;-1.74;79.84;103150.97;1809465;77;21854;-60
2022/12/19 11:53:17;;;;;;;34.00;15.38;;;;;;;-1.75;79.91;103146.52;1814620;77;21201;-59
2022/12/19 11:56:26;;;;;;;15.28;9.80;;;;;;;-1.67;80.10;103137.86;1824089;76;21201;-60
2022/12/19 11:59:41;;;;;;;16.40;9.10;;;;;;;-1.51;80.30;103150.51;1813959;77;21212;-59
2022/12/19 12:03:08;;;;;;;13.55;7.92;;;;;;;-1.39;80.29;103156.05;1815110;77;21546;-59
2022/12/19 12:06:21;;;;;;;12.63;7.40;;;;;;;-1.32;80.30;103150.55;1819722;77;21768;-59
2022/12/19 12:09:55;;;;;;;10.05;6.67;;;;;;;-1.29;80.10;103159.88;1802501;78;21522;-60
2022/12/19 12:13:32;;;;;;;11.05;7.35;;;;;;;-1.33;79.97;103151.92;1795207;78;21243;-63
2022/12/19 12:17:04;;;;;;;12.80;9.00;;;;;;;-1.34;79.95;103148.79;1802979;79;21205;-59
2022/12/19 12:20:37;;;;;;;12.25;7.97;;;;;;;-1.26;80.14;103139.66;1802467;79;21239;-58
2022/12/19 12:24:33;;;;;;;12.82;8.45;;;;;;;-1.16;80.17;103137.20;1798627;77;21271;-59
2022/12/19 12:28:17;;;;;;;12.80;7.80;;;;;;;-1.10;80.21;103130.78;1803569;78;21220;-60
2022/12/19 12:31:36;;;;;;;13.55;8.88;;;;;;;-1.02;80.13;103128.81;1821690;77;21145;-59
2022/12/19 12:34:57;;;;;;;14.95;7.65;;;;;;;-0.98;80.21;103129.18;1804396;78;21240;-60
2022/12/19 12:38:38;;;;;;;10.32;6.72;;;;;;;-0.88;80.25;103118.61;1804439;78;21190;-62
2022/12/19 12:42:05;;;;;;;14.33;7.65;;;;;;;-0.79;80.27;103103.59;1810424;77;21214;-60
2022/12/19 12:45:23;;;;;;;12.13;7.83;;;;;;;-0.75;80.20;103092.75;1785534;77;21438;-59
2022/12/19 12:48:42;;;;;;;16.90;9.58;;;;;;;-0.66;80.28;103096.55;1834345;77;21177;-61
2022/12/19 12:51:56;;;;;;;13.98;6.40;;;;;;;-0.55;80.31;103096.26;1835833;78;21205;-55
2022/12/19 12:55:01;;;;;;;9.80;6.67;;;;;;;-0.49;80.24;103102.86;1837022;77;21173;-55
2022/12/19 12:58:07;;;;;;;22.80;11.08;;;;;;;-0.48;80.19;103106.84;1824251;78;21803;-55
2022/12/19 13:01:33;;;;;;;12.13;7.80;;;;;;;-0.43;80.18;103121.53;1800049;77;21188;-55
2022/12/19 13:04:44;;;;;;;15.03;7.87;;;;;;;-0.43;80.12;103119.70;1799698;77;21243;-54
2022/12/19 13:07:59;;;;;;;12.28;7.20;;;;;;;-0.46;79.90;103135.06;1804991;77;21247;-55
2022/12/19 13:14:54;;;;;;;11.63;7.25;;;;;;;-0.58;79.79;103148.34;1802998;78;21244;-55
2022/12/19 13:18:04;;;;;;;13.72;8.10;;;;;;;-0.63;79.78;103151.61;1799826;77;21789;-55
2022/12/19 13:21:12;;;;;;;23.07;10.55;;;;;;;-0.66;79.80;103165.58;1817013;77;21623;-54
2022/12/19 13:24:24;;;;;;;19.00;8.55;;;;;;;-0.66;79.86;103179.03;1804822;77;21275;-54
2022/12/19 13:27:40;;;;;;;28.87;12.70;;;;;;;-0.68;79.87;103175.52;1792323;80;21219;-55
2022/12/19 13:31:09;;;;;;;16.97;9.68;;;;;;;-0.68;79.88;103179.55;1805200;78;21734;-55
2022/12/19 13:34:24;;;;;;;14.00;8.90;;;;;;;-0.70;79.90;103167.94;1818077;76;21766;-54
2022/12/19 13:37:47;;;;;;;11.20;7.90;;;;;;;-0.70;79.89;103168.80;1813083;76;21200;-55
2022/12/19 13:43:44;;;;;;;11.93;7.55;;;;;;;-0.72;79.87;103172.45;1820470;78;21181;-54
2022/12/19 13:44:18;;;;;;;14.53;7.12;;;;;;;-0.78;79.83;103164.54;1825518;76;21462;-54
2022/12/19 13:47:25;;;;;;;11.20;7.65;;;;;;;-0.76;79.90;103166.74;1816282;78;21197;-55
2022/12/19 13:50:43;;;;;;;17.20;9.68;;;;;;;-0.72;79.98;103162.59;1813733;77;21161;-55
2022/12/19 13:53:49;;;;;;;21.37;11.03;;;;;;;-0.67;80.02;103159.80;1824563;78;21279;-55
2022/12/19 13:56:59;;;;;;;12.78;7.45;;;;;;;-0.65;80.03;103149.41;1779800;78;21711;-54
2022/12/19 14:00:08;;;;;;;21.75;10.78;;;;;;;-0.62;80.07;103153.84;1828226;76;21193;-55
2022/12/19 14:03:23;;;;;;;26.20;13.32;;;;;;;-0.62;80.03;103152.02;1819506;78;21189;-55
2022/12/19 14:06:36;;;;;;;19.32;10.75;;;;;;;-0.60;80.05;103150.63;1808184;78;21552;-54
2022/12/19 14:09:46;;;;;;;20.48;12.85;;;;;;;-0.58;80.00;103152.38;1804613;78;21710;-55
2022/12/19 14:16:24;;;;;;;20.45;11.75;;;;;;;-0.56;79.97;103159.06;1815685;77;21191;-57
2022/12/19 14:19:34;;;;;;;21.52;13.13;;;;;;;-0.62;79.92;103160.09;1802321;79;21183;-55
2022/12/19 14:22:57;;;;;;;20.97;12.88;;;;;;;-0.63;79.85;103164.16;1857249;76;21732;-58
2022/12/19 14:26:34;;;;;;;;;;;;;;;-0.65;79.85;103155.27;1812703;78;21741;-58
2022/12/19 14:29:56;;;;;;;11.12;8.53;;;;;;;-0.65;79.85;103167.38;1801814;78;20207;-61
2022/12/19 14:33:02;;;;;;;11.90;7.15;;;;;;;-0.66;79.90;103158.86;1779631;80;21786;-60
2022/12/19 14:36:10;;;;;;;28.05;14.73;;;;;;;-0.68;79.85;103171.48;1790433;79;21753;-59
2022/12/19 14:39:24;;;;;;;24.47;13.22;;;;;;;-0.72;79.78;103173.80;1775479;80;21185;-58
2022/12/19 14:45:54;;;;;;;20.92;10.82;;;;;;;-0.71;79.76;103184.52;1723565;83;21768;-59
2022/12/19 14:49:09;;;;;;;16.02;10.13;;;;;;;-0.73;79.73;103185.49;1787761;79;21192;-59
2022/12/19 14:52:49;;;;;;;25.27;14.63;;;;;;;-0.74;79.71;103191.77;1748696;78;21532;-59
2022/12/19 14:56:21;;;;;;;18.40;11.10;;;;;;;-0.73;79.71;103194.42;1738205;81;21330;-59
2022/12/19 14:59:44;;;;;;;21.70;14.43;;;;;;;-0.73;79.69;103196.25;1782817;80;21196;-59
2022/12/19 15:02:50;;;;;;;15.55;10.05;;;;;;;-0.73;79.76;103191.73;1783123;78;21578;-58
2022/12/19 15:05:58;;;;;;;16.30;9.15;;;;;;;-0.71;79.77;103191.70;1783395;77;21200;-59